モスクワ/シェレメーチエヴォ の空港の天気 - METARとTAF

シェレメーチエヴォ国際空港(モスクワ) ( UUEE / SVO ) - ロシア モスクワ
飛行場実況気象(Metar)
観測時間07/02 15:00 MSK (07/02 12:00 UTC)
風向・風速南西 5m/s
視程10km以上
天気現象弱いしゅう雨
全天の4割程度の雲 雲底高度 730m
気温23℃
湿度53%
気圧1011hPa
METARUUEE 021200Z 23005MPS 200V260 9999 -SHRA SCT024CB 23/13 Q1011 R24L/CLRD62 NOSIG
過去の天気等 Google飛行場航空写真 Wunderground天気予報

過去48時間のMETAR

飛行場予報(TAF)
発表時間: 7/02 13:57 MSK (7/02 10:57 UTC)
予報対象時間: 2日15時 MSK ~ 3日15時 MSK
風向・風速西南西 5m/s 瞬間風速 10m/s
視程10km以上
全天の4割程度の雲 雲底高度 910m
2日15時 MSK ~ 2日24時 MSK に一時的に
風向・風速南西 8m/s 瞬間風速 15m/s
天気現象弱いしゅう雨
全天の8割程度の積乱雲 雲底高度 490m
2日15時 MSK ~ 2日21時 MSK に 確率 40% で一時的に
天気現象弱い雷雨
全天の8割程度の積乱雲 雲底高度 490m
3日8時 MSK ~ 3日15時 MSK に一時的に
風向・風速西南西 8m/s 瞬間風速 15m/s
天気現象弱い雷雨
全天の8割程度の積乱雲 雲底高度 490m
TAF UUEE 021057Z 0212/0312 24005G10MPS 9999 SCT030 TX25/0212Z TN16/0302Z
TEMPO 0212/0221 22008G15MPS -SHRA BKN016CB
PROB40 TEMPO 0212/0218 -TSRA BKN016CB
TEMPO 0305/0312 25008G15MPS -TSRA BKN016CB